sensor_id;sensor_type;location;lat;lon;timestamp;P1;durP1;ratioP1;P2;durP2;ratioP2
36303;SDS011;22335;49.800;8.596;2022-07-29T00:03:17;7.38;;;5.25;;
36303;SDS011;22335;49.800;8.596;2022-07-29T00:10:06;5.35;;;4.90;;
36303;SDS011;22335;49.800;8.596;2022-07-29T00:16:52;6.10;;;4.97;;
36303;SDS011;22335;49.800;8.596;2022-07-29T00:23:38;5.90;;;5.35;;
36303;SDS011;22335;49.800;8.596;2022-07-29T00:30:26;5.53;;;5.03;;
36303;SDS011;22335;49.800;8.596;2022-07-29T00:37:11;7.20;;;5.50;;
36303;SDS011;22335;49.800;8.596;2022-07-29T00:50:45;5.77;;;5.27;;
36303;SDS011;22335;49.800;8.596;2022-07-29T00:57:30;7.97;;;5.13;;
36303;SDS011;22335;49.800;8.596;2022-07-29T01:04:16;6.07;;;5.55;;
36303;SDS011;22335;49.800;8.596;2022-07-29T01:17:52;5.68;;;5.28;;
36303;SDS011;22335;49.800;8.596;2022-07-29T01:24:51;8.00;;;5.63;;
36303;SDS011;22335;49.800;8.596;2022-07-29T01:32:05;6.00;;;5.38;;
36303;SDS011;22335;49.800;8.596;2022-07-29T01:39:10;6.90;;;5.30;;
36303;SDS011;22335;49.800;8.596;2022-07-29T01:45:59;6.78;;;5.10;;
36303;SDS011;22335;49.800;8.596;2022-07-29T01:52:52;6.80;;;5.35;;
36303;SDS011;22335;49.800;8.596;2022-07-29T01:59:42;6.97;;;4.93;;
36303;SDS011;22335;49.800;8.596;2022-07-29T02:06:31;7.72;;;5.88;;
36303;SDS011;22335;49.800;8.596;2022-07-29T02:13:23;6.38;;;5.82;;
36303;SDS011;22335;49.800;8.596;2022-07-29T02:20:12;5.68;;;5.28;;
36303;SDS011;22335;49.800;8.596;2022-07-29T02:26:58;6.47;;;5.32;;
36303;SDS011;22335;49.800;8.596;2022-07-29T02:33:49;6.15;;;5.47;;
36303;SDS011;22335;49.800;8.596;2022-07-29T02:40:37;6.00;;;5.50;;
36303;SDS011;22335;49.800;8.596;2022-07-29T03:01:16;6.70;;;6.20;;
36303;SDS011;22335;49.800;8.596;2022-07-29T03:08:06;6.60;;;5.40;;
36303;SDS011;22335;49.800;8.596;2022-07-29T03:14:55;6.10;;;5.70;;
36303;SDS011;22335;49.800;8.596;2022-07-29T03:21:45;6.28;;;5.70;;
36303;SDS011;22335;49.800;8.596;2022-07-29T03:28:31;6.25;;;5.75;;
36303;SDS011;22335;49.800;8.596;2022-07-29T03:35:17;12.00;;;6.22;;
36303;SDS011;22335;49.800;8.596;2022-07-29T03:42:06;7.20;;;5.57;;
36303;SDS011;22335;49.800;8.596;2022-07-29T03:48:57;6.65;;;6.05;;
36303;SDS011;22335;49.800;8.596;2022-07-29T03:55:47;6.97;;;6.30;;
36303;SDS011;22335;49.800;8.596;2022-07-29T04:02:40;6.70;;;6.00;;
36303;SDS011;22335;49.800;8.596;2022-07-29T04:09:30;6.47;;;5.88;;
36303;SDS011;22335;49.800;8.596;2022-07-29T04:16:16;7.28;;;6.05;;
36303;SDS011;22335;49.800;8.596;2022-07-29T04:23:04;7.30;;;5.65;;
36303;SDS011;22335;49.800;8.596;2022-07-29T04:29:49;6.85;;;6.10;;
36303;SDS011;22335;49.800;8.596;2022-07-29T04:36:37;7.75;;;6.07;;
36303;SDS011;22335;49.800;8.596;2022-07-29T04:43:25;6.20;;;5.70;;
36303;SDS011;22335;49.800;8.596;2022-07-29T04:50:17;9.48;;;6.03;;
36303;SDS011;22335;49.800;8.596;2022-07-29T04:57:03;7.28;;;6.20;;
36303;SDS011;22335;49.800;8.596;2022-07-29T05:03:51;7.43;;;5.85;;
36303;SDS011;22335;49.800;8.596;2022-07-29T05:10:41;6.28;;;5.72;;
36303;SDS011;22335;49.800;8.596;2022-07-29T05:17:26;6.22;;;5.55;;
36303;SDS011;22335;49.800;8.596;2022-07-29T05:24:14;9.00;;;6.20;;
36303;SDS011;22335;49.800;8.596;2022-07-29T05:31:00;9.40;;;5.90;;
36303;SDS011;22335;49.800;8.596;2022-07-29T05:37:46;11.20;;;6.22;;
36303;SDS011;22335;49.800;8.596;2022-07-29T05:44:38;6.38;;;5.80;;
36303;SDS011;22335;49.800;8.596;2022-07-29T05:51:23;7.57;;;5.90;;
36303;SDS011;22335;49.800;8.596;2022-07-29T05:58:09;10.45;;;5.40;;
36303;SDS011;22335;49.800;8.596;2022-07-29T06:04:57;6.28;;;5.78;;
36303;SDS011;22335;49.800;8.596;2022-07-29T06:11:43;8.70;;;6.00;;
36303;SDS011;22335;49.800;8.596;2022-07-29T06:18:29;8.23;;;5.90;;
36303;SDS011;22335;49.800;8.596;2022-07-29T06:32:02;13.30;;;5.70;;
36303;SDS011;22335;49.800;8.596;2022-07-29T06:38:50;6.47;;;5.45;;
36303;SDS011;22335;49.800;8.596;2022-07-29T06:45:39;8.60;;;5.72;;
36303;SDS011;22335;49.800;8.596;2022-07-29T06:52:25;7.93;;;6.18;;
36303;SDS011;22335;49.800;8.596;2022-07-29T06:59:11;6.38;;;5.32;;
36303;SDS011;22335;49.800;8.596;2022-07-29T07:06:00;6.13;;;5.63;;
36303;SDS011;22335;49.800;8.596;2022-07-29T07:12:46;6.20;;;5.50;;
36303;SDS011;22335;49.800;8.596;2022-07-29T07:19:31;8.73;;;5.72;;
36303;SDS011;22335;49.800;8.596;2022-07-29T07:26:20;5.70;;;5.28;;
36303;SDS011;22335;49.800;8.596;2022-07-29T07:33:05;7.40;;;5.78;;
36303;SDS011;22335;49.800;8.596;2022-07-29T07:39:51;6.75;;;6.10;;
36303;SDS011;22335;49.800;8.596;2022-07-29T07:46:39;6.55;;;5.72;;
36303;SDS011;22335;49.800;8.596;2022-07-29T07:53:26;6.57;;;5.47;;
36303;SDS011;22335;49.800;8.596;2022-07-29T08:00:13;5.45;;;4.95;;
36303;SDS011;22335;49.800;8.596;2022-07-29T08:07:06;5.65;;;5.20;;
36303;SDS011;22335;49.800;8.596;2022-07-29T08:13:52;5.68;;;5.28;;
36303;SDS011;22335;49.800;8.596;2022-07-29T08:20:38;7.80;;;5.93;;
36303;SDS011;22335;49.800;8.596;2022-07-29T08:27:27;5.60;;;5.10;;
36303;SDS011;22335;49.800;8.596;2022-07-29T08:34:24;6.13;;;5.53;;
36303;SDS011;22335;49.800;8.596;2022-07-29T08:41:10;6.90;;;5.95;;
36303;SDS011;22335;49.800;8.596;2022-07-29T08:47:59;6.47;;;5.97;;
36303;SDS011;22335;49.800;8.596;2022-07-29T08:54:44;5.72;;;5.22;;
36303;SDS011;22335;49.800;8.596;2022-07-29T09:01:31;5.90;;;5.50;;
36303;SDS011;22335;49.800;8.596;2022-07-29T09:08:28;6.20;;;5.73;;
36303;SDS011;22335;49.800;8.596;2022-07-29T09:15:15;6.38;;;5.75;;
36303;SDS011;22335;49.800;8.596;2022-07-29T09:22:03;7.53;;;5.57;;
36303;SDS011;22335;49.800;8.596;2022-07-29T09:28:54;5.82;;;5.40;;
36303;SDS011;22335;49.800;8.596;2022-07-29T09:35:39;6.20;;;5.70;;
36303;SDS011;22335;49.800;8.596;2022-07-29T09:42:37;6.28;;;5.85;;
36303;SDS011;22335;49.800;8.596;2022-07-29T09:49:26;8.48;;;6.20;;
36303;SDS011;22335;49.800;8.596;2022-07-29T09:56:11;7.88;;;6.18;;
36303;SDS011;22335;49.800;8.596;2022-07-29T10:02:58;7.03;;;6.00;;
36303;SDS011;22335;49.800;8.596;2022-07-29T10:09:51;7.22;;;6.07;;
36303;SDS011;22335;49.800;8.596;2022-07-29T10:16:38;7.63;;;6.68;;
36303;SDS011;22335;49.800;8.596;2022-07-29T10:23:24;6.80;;;6.03;;
36303;SDS011;22335;49.800;8.596;2022-07-29T10:30:30;7.07;;;5.60;;
36303;SDS011;22335;49.800;8.596;2022-07-29T10:37:18;6.05;;;5.60;;
36303;SDS011;22335;49.800;8.596;2022-07-29T10:44:17;7.20;;;5.97;;
36303;SDS011;22335;49.800;8.596;2022-07-29T10:51:08;6.43;;;5.80;;
36303;SDS011;22335;49.800;8.596;2022-07-29T11:04:59;6.35;;;5.75;;
36303;SDS011;22335;49.800;8.596;2022-07-29T11:11:50;9.52;;;5.65;;
36303;SDS011;22335;49.800;8.596;2022-07-29T11:18:35;6.97;;;6.00;;
36303;SDS011;22335;49.800;8.596;2022-07-29T11:25:25;6.35;;;5.50;;
36303;SDS011;22335;49.800;8.596;2022-07-29T11:32:38;6.13;;;5.53;;
36303;SDS011;22335;49.800;8.596;2022-07-29T11:39:29;6.38;;;5.80;;
36303;SDS011;22335;49.800;8.596;2022-07-29T11:46:18;9.23;;;6.55;;
36303;SDS011;22335;49.800;8.596;2022-07-29T11:53:33;6.53;;;6.03;;
36303;SDS011;22335;49.800;8.596;2022-07-29T12:00:21;6.82;;;6.18;;
36303;SDS011;22335;49.800;8.596;2022-07-29T12:07:13;6.80;;;5.90;;
36303;SDS011;22335;49.800;8.596;2022-07-29T12:14:03;5.88;;;5.38;;
36303;SDS011;22335;49.800;8.596;2022-07-29T12:20:49;6.03;;;5.63;;
36303;SDS011;22335;49.800;8.596;2022-07-29T12:27:45;9.00;;;5.43;;
36303;SDS011;22335;49.800;8.596;2022-07-29T12:34:33;6.72;;;5.68;;
36303;SDS011;22335;49.800;8.596;2022-07-29T12:41:19;5.97;;;5.35;;
36303;SDS011;22335;49.800;8.596;2022-07-29T12:48:05;5.88;;;5.40;;
36303;SDS011;22335;49.800;8.596;2022-07-29T12:54:56;10.32;;;5.88;;
36303;SDS011;22335;49.800;8.596;2022-07-29T13:01:42;6.40;;;5.65;;
36303;SDS011;22335;49.800;8.596;2022-07-29T13:08:29;6.32;;;5.80;;
36303;SDS011;22335;49.800;8.596;2022-07-29T13:15:18;6.25;;;5.70;;
36303;SDS011;22335;49.800;8.596;2022-07-29T13:22:03;5.43;;;4.95;;
36303;SDS011;22335;49.800;8.596;2022-07-29T13:28:49;5.75;;;5.15;;
36303;SDS011;22335;49.800;8.596;2022-07-29T13:35:38;5.38;;;4.88;;
36303;SDS011;22335;49.800;8.596;2022-07-29T13:42:24;5.70;;;5.20;;
36303;SDS011;22335;49.800;8.596;2022-07-29T13:49:12;5.90;;;5.50;;
36303;SDS011;22335;49.800;8.596;2022-07-29T13:56:00;9.95;;;5.50;;
36303;SDS011;22335;49.800;8.596;2022-07-29T14:02:47;8.25;;;6.00;;
36303;SDS011;22335;49.800;8.596;2022-07-29T14:09:32;6.82;;;6.07;;
36303;SDS011;22335;49.800;8.596;2022-07-29T14:16:24;5.53;;;5.05;;
36303;SDS011;22335;49.800;8.596;2022-07-29T14:23:10;6.53;;;5.45;;
36303;SDS011;22335;49.800;8.596;2022-07-29T14:29:57;5.60;;;5.10;;
36303;SDS011;22335;49.800;8.596;2022-07-29T14:36:45;6.97;;;5.70;;
36303;SDS011;22335;49.800;8.596;2022-07-29T14:43:30;5.97;;;5.47;;
36303;SDS011;22335;49.800;8.596;2022-07-29T14:50:16;5.78;;;5.22;;
36303;SDS011;22335;49.800;8.596;2022-07-29T14:57:15;6.32;;;5.68;;
36303;SDS011;22335;49.800;8.596;2022-07-29T15:04:01;6.18;;;5.60;;
36303;SDS011;22335;49.800;8.596;2022-07-29T15:10:47;5.88;;;5.32;;
36303;SDS011;22335;49.800;8.596;2022-07-29T15:17:36;6.13;;;5.53;;
36303;SDS011;22335;49.800;8.596;2022-07-29T15:24:21;6.72;;;5.53;;
36303;SDS011;22335;49.800;8.596;2022-07-29T15:31:08;6.07;;;5.60;;
36303;SDS011;22335;49.800;8.596;2022-07-29T15:37:56;9.43;;;5.43;;
36303;SDS011;22335;49.800;8.596;2022-07-29T15:44:42;5.57;;;5.07;;
36303;SDS011;22335;49.800;8.596;2022-07-29T15:51:28;5.65;;;5.18;;
36303;SDS011;22335;49.800;8.596;2022-07-29T15:58:16;6.07;;;5.55;;
36303;SDS011;22335;49.800;8.596;2022-07-29T16:05:01;5.60;;;5.10;;
36303;SDS011;22335;49.800;8.596;2022-07-29T16:11:50;6.32;;;5.80;;
36303;SDS011;22335;49.800;8.596;2022-07-29T16:18:39;6.75;;;5.93;;
36303;SDS011;22335;49.800;8.596;2022-07-29T16:25:24;6.00;;;5.50;;
36303;SDS011;22335;49.800;8.596;2022-07-29T16:32:30;5.13;;;4.72;;
36303;SDS011;22335;49.800;8.596;2022-07-29T16:39:18;5.45;;;4.95;;
36303;SDS011;22335;49.800;8.596;2022-07-29T16:46:03;7.05;;;6.35;;
36303;SDS011;22335;49.800;8.596;2022-07-29T16:52:59;6.90;;;6.20;;
36303;SDS011;22335;49.800;8.596;2022-07-29T16:59:47;6.10;;;5.57;;
36303;SDS011;22335;49.800;8.596;2022-07-29T17:06:33;5.95;;;5.53;;
36303;SDS011;22335;49.800;8.596;2022-07-29T17:13:20;6.50;;;5.82;;
36303;SDS011;22335;49.800;8.596;2022-07-29T17:20:09;6.45;;;5.82;;
36303;SDS011;22335;49.800;8.596;2022-07-29T17:26:58;8.50;;;5.45;;
36303;SDS011;22335;49.800;8.596;2022-07-29T17:33:43;5.32;;;4.93;;
36303;SDS011;22335;49.800;8.596;2022-07-29T17:40:31;7.07;;;5.75;;
36303;SDS011;22335;49.800;8.596;2022-07-29T17:47:17;11.73;;;5.68;;
36303;SDS011;22335;49.800;8.596;2022-07-29T17:54:02;5.72;;;5.43;;
36303;SDS011;22335;49.800;8.596;2022-07-29T18:00:51;6.22;;;5.82;;
36303;SDS011;22335;49.800;8.596;2022-07-29T18:07:36;6.00;;;5.50;;
36303;SDS011;22335;49.800;8.596;2022-07-29T18:14:22;6.53;;;5.90;;
36303;SDS011;22335;49.800;8.596;2022-07-29T18:21:10;8.18;;;6.00;;
36303;SDS011;22335;49.800;8.596;2022-07-29T18:28:17;6.10;;;5.47;;
36303;SDS011;22335;49.800;8.596;2022-07-29T18:35:03;6.50;;;5.90;;
36303;SDS011;22335;49.800;8.596;2022-07-29T18:41:52;8.55;;;6.25;;
36303;SDS011;22335;49.800;8.596;2022-07-29T18:48:39;5.75;;;5.32;;
36303;SDS011;22335;49.800;8.596;2022-07-29T18:55:25;5.65;;;5.25;;
36303;SDS011;22335;49.800;8.596;2022-07-29T19:02:13;7.78;;;6.03;;
36303;SDS011;22335;49.800;8.596;2022-07-29T19:08:59;7.20;;;6.68;;
36303;SDS011;22335;49.800;8.596;2022-07-29T19:15:45;7.90;;;6.43;;
36303;SDS011;22335;49.800;8.596;2022-07-29T19:22:33;6.90;;;6.03;;
36303;SDS011;22335;49.800;8.596;2022-07-29T19:29:19;6.95;;;6.35;;
36303;SDS011;22335;49.800;8.596;2022-07-29T19:36:05;7.43;;;6.72;;
36303;SDS011;22335;49.800;8.596;2022-07-29T19:42:54;8.35;;;6.68;;
36303;SDS011;22335;49.800;8.596;2022-07-29T19:49:41;8.10;;;7.30;;
36303;SDS011;22335;49.800;8.596;2022-07-29T19:56:26;7.25;;;6.45;;
36303;SDS011;22335;49.800;8.596;2022-07-29T20:03:15;7.10;;;6.50;;
36303;SDS011;22335;49.800;8.596;2022-07-29T20:10:00;7.50;;;6.75;;
36303;SDS011;22335;49.800;8.596;2022-07-29T20:16:47;7.22;;;6.57;;
36303;SDS011;22335;49.800;8.596;2022-07-29T20:23:36;7.30;;;6.72;;
36303;SDS011;22335;49.800;8.596;2022-07-29T20:30:22;7.72;;;7.05;;
36303;SDS011;22335;49.800;8.596;2022-07-29T20:37:09;7.70;;;7.10;;
36303;SDS011;22335;49.800;8.596;2022-07-29T20:44:00;6.90;;;6.40;;
36303;SDS011;22335;49.800;8.596;2022-07-29T20:50:46;7.50;;;6.80;;
36303;SDS011;22335;49.800;8.596;2022-07-29T20:57:33;6.75;;;6.07;;
36303;SDS011;22335;49.800;8.596;2022-07-29T21:04:23;8.80;;;6.75;;
36303;SDS011;22335;49.800;8.596;2022-07-29T21:11:13;7.43;;;6.82;;
36303;SDS011;22335;49.800;8.596;2022-07-29T21:25:15;8.20;;;7.40;;
36303;SDS011;22335;49.800;8.596;2022-07-29T21:32:01;7.50;;;7.00;;
36303;SDS011;22335;49.800;8.596;2022-07-29T21:38:47;7.40;;;6.80;;
36303;SDS011;22335;49.800;8.596;2022-07-29T21:52:21;7.75;;;7.15;;
36303;SDS011;22335;49.800;8.596;2022-07-29T21:59:06;7.85;;;7.15;;
36303;SDS011;22335;49.800;8.596;2022-07-29T22:05:55;8.18;;;7.30;;
36303;SDS011;22335;49.800;8.596;2022-07-29T22:12:42;8.50;;;7.75;;
36303;SDS011;22335;49.800;8.596;2022-07-29T22:19:27;7.47;;;6.88;;
36303;SDS011;22335;49.800;8.596;2022-07-29T22:33:01;8.10;;;7.43;;
36303;SDS011;22335;49.800;8.596;2022-07-29T22:39:47;7.57;;;7.00;;
36303;SDS011;22335;49.800;8.596;2022-07-29T22:53:20;7.13;;;6.57;;
36303;SDS011;22335;49.800;8.596;2022-07-29T23:00:07;10.20;;;9.30;;
36303;SDS011;22335;49.800;8.596;2022-07-29T23:06:59;10.65;;;9.77;;
36303;SDS011;22335;49.800;8.596;2022-07-29T23:13:44;9.52;;;8.63;;
36303;SDS011;22335;49.800;8.596;2022-07-29T23:20:30;8.27;;;7.53;;
36303;SDS011;22335;49.800;8.596;2022-07-29T23:27:18;7.88;;;7.28;;
36303;SDS011;22335;49.800;8.596;2022-07-29T23:34:04;9.13;;;8.32;;
36303;SDS011;22335;49.800;8.596;2022-07-29T23:40:50;9.98;;;8.63;;
36303;SDS011;22335;49.800;8.596;2022-07-29T23:47:39;14.10;;;11.60;;
36303;SDS011;22335;49.800;8.596;2022-07-29T23:54:25;8.70;;;7.90;;
